createdAt,value
2022-07-29T00:02:25.331Z,19.83
2022-07-29T00:04:51.884Z,19.77
2022-07-29T00:07:18.483Z,19.79
2022-07-29T00:09:51.610Z,19.79
2022-07-29T00:12:25.382Z,19.74
2022-07-29T00:14:55.275Z,19.74
2022-07-29T00:17:21.912Z,19.72
2022-07-29T00:19:48.371Z,19.71
2022-07-29T00:22:15.008Z,19.70
2022-07-29T00:24:41.738Z,19.71
2022-07-29T00:27:08.179Z,19.68
2022-07-29T00:29:35.298Z,19.64
2022-07-29T00:32:03.018Z,19.62
2022-07-29T00:34:48.144Z,19.60
2022-07-29T00:37:14.627Z,19.60
2022-07-29T00:39:41.087Z,19.56
2022-07-29T00:42:08.814Z,19.58
2022-07-29T00:44:42.556Z,19.55
2022-07-29T00:47:11.446Z,19.54
2022-07-29T00:49:40.324Z,19.52
2022-07-29T00:52:08.343Z,19.50
2022-07-29T00:54:35.586Z,19.51
2022-07-29T00:57:07.208Z,19.51
2022-07-29T00:59:35.252Z,19.49
2022-07-29T01:02:05.595Z,19.48
2022-07-29T01:04:32.807Z,19.48
2022-07-29T01:07:01.468Z,19.47
2022-07-29T01:09:35.016Z,19.47
2022-07-29T01:12:16.062Z,19.45
2022-07-29T01:14:43.417Z,19.45
2022-07-29T01:17:27.873Z,19.40
2022-07-29T01:20:02.738Z,19.41
2022-07-29T01:22:36.182Z,19.41
2022-07-29T01:25:17.863Z,19.40
2022-07-29T01:27:56.410Z,19.40
2022-07-29T01:30:25.645Z,19.39
2022-07-29T01:32:57.144Z,19.39
2022-07-29T01:35:26.851Z,19.35
2022-07-29T01:38:02.603Z,19.35
2022-07-29T01:40:41.652Z,19.34
2022-07-29T01:43:14.118Z,19.32
2022-07-29T01:45:58.719Z,19.29
2022-07-29T01:48:48.200Z,19.29
2022-07-29T01:51:20.333Z,19.23
2022-07-29T01:53:57.325Z,19.20
2022-07-29T01:56:26.395Z,19.19
2022-07-29T01:58:54.444Z,19.09
2022-07-29T02:01:25.162Z,19.08
2022-07-29T02:03:54.017Z,19.01
2022-07-29T02:06:23.877Z,18.96
2022-07-29T02:08:53.704Z,18.93
2022-07-29T02:11:20.541Z,18.83
2022-07-29T02:13:48.395Z,18.84
2022-07-29T02:16:17.379Z,18.81
2022-07-29T02:18:46.587Z,18.85
2022-07-29T02:21:15.188Z,18.92
2022-07-29T02:23:45.207Z,19.02
2022-07-29T02:26:19.122Z,19.07
2022-07-29T02:28:47.472Z,19.08
2022-07-29T02:31:15.486Z,19.10
2022-07-29T02:33:43.843Z,19.09
2022-07-29T02:36:11.234Z,19.06
2022-07-29T02:38:51.223Z,19.06
2022-07-29T02:41:24.872Z,18.93
2022-07-29T02:43:56.183Z,18.90
2022-07-29T02:46:31.154Z,18.87
2022-07-29T02:49:10.235Z,18.73
2022-07-29T02:51:46.631Z,18.67
2022-07-29T02:54:21.935Z,18.64
2022-07-29T02:56:50.501Z,18.62
2022-07-29T02:59:21.980Z,18.66
2022-07-29T03:01:50.124Z,18.69
2022-07-29T03:04:20.588Z,18.66
2022-07-29T03:06:47.950Z,18.62
2022-07-29T03:09:14.982Z,18.64
2022-07-29T03:11:49.750Z,18.59
2022-07-29T03:14:18.842Z,18.55
2022-07-29T03:16:46.240Z,18.57
2022-07-29T03:19:13.230Z,18.55
2022-07-29T03:21:39.991Z,18.53
2022-07-29T03:24:10.544Z,18.46
2022-07-29T03:26:37.894Z,18.44
2022-07-29T03:29:04.424Z,18.38
2022-07-29T03:31:30.985Z,18.35
2022-07-29T03:33:58.447Z,18.36
2022-07-29T03:36:25.735Z,18.32
2022-07-29T03:38:53.112Z,18.29
2022-07-29T03:41:22.552Z,18.21
2022-07-29T03:43:52.360Z,18.08
2022-07-29T03:46:20.441Z,17.89
2022-07-29T03:48:51.627Z,17.87
2022-07-29T03:51:18.297Z,17.71
2022-07-29T03:53:59.547Z,17.62
2022-07-29T03:56:28.337Z,17.57
2022-07-29T03:58:55.687Z,17.51
2022-07-29T04:01:23.548Z,17.52
2022-07-29T04:03:50.594Z,17.46
2022-07-29T04:06:17.136Z,17.57
2022-07-29T04:08:43.589Z,17.60
2022-07-29T04:11:10.311Z,17.56
2022-07-29T04:13:36.761Z,17.50
2022-07-29T04:16:03.283Z,17.49
2022-07-29T04:18:29.900Z,17.55
2022-07-29T04:20:56.442Z,17.49
2022-07-29T04:23:22.907Z,17.45
2022-07-29T04:25:49.392Z,17.44
2022-07-29T04:28:15.843Z,17.39
2022-07-29T04:30:43.650Z,17.39
2022-07-29T04:33:10.247Z,17.48
2022-07-29T04:35:50.581Z,17.49
2022-07-29T04:38:18.962Z,17.52
2022-07-29T04:40:45.511Z,17.56
2022-07-29T04:43:14.347Z,17.60
2022-07-29T04:45:42.294Z,17.58
2022-07-29T04:48:09.036Z,17.56
2022-07-29T04:50:35.564Z,17.50
2022-07-29T04:53:02.212Z,17.47
2022-07-29T04:55:28.738Z,17.33
2022-07-29T04:57:55.224Z,17.20
2022-07-29T05:00:21.685Z,17.16
2022-07-29T05:02:54.757Z,17.18
2022-07-29T05:05:21.327Z,17.24
2022-07-29T05:07:47.804Z,17.14
2022-07-29T05:10:14.329Z,17.23
2022-07-29T05:12:40.786Z,17.22
2022-07-29T05:15:07.764Z,17.22
2022-07-29T05:17:37.650Z,17.27
2022-07-29T05:20:05.599Z,17.26
2022-07-29T05:22:32.058Z,17.29
2022-07-29T05:24:58.549Z,17.37
2022-07-29T05:27:25.156Z,17.37
2022-07-29T05:29:51.761Z,17.42
2022-07-29T05:32:18.692Z,17.47
2022-07-29T05:34:50.264Z,17.50
2022-07-29T05:37:19.761Z,17.54
2022-07-29T05:39:48.716Z,17.56
2022-07-29T05:42:17.295Z,17.57
2022-07-29T05:44:43.806Z,17.60
2022-07-29T05:47:10.277Z,17.66
2022-07-29T05:49:36.865Z,17.64
2022-07-29T05:52:03.991Z,17.66
2022-07-29T05:54:30.523Z,17.67
2022-07-29T05:56:57.179Z,17.72
2022-07-29T05:59:28.327Z,17.73
2022-07-29T06:01:58.079Z,17.75
2022-07-29T06:04:24.824Z,17.75
2022-07-29T06:06:51.374Z,17.82
2022-07-29T06:09:17.936Z,17.84
2022-07-29T06:11:44.657Z,17.89
2022-07-29T06:14:11.259Z,17.93
2022-07-29T06:16:37.990Z,17.96
2022-07-29T06:19:05.352Z,18.00
2022-07-29T06:21:31.849Z,18.03
2022-07-29T06:23:58.451Z,18.11
2022-07-29T06:26:30.773Z,18.14
2022-07-29T06:28:58.535Z,18.19
2022-07-29T06:31:25.111Z,18.21
2022-07-29T06:33:51.745Z,18.22
2022-07-29T06:36:22.876Z,18.21
2022-07-29T06:38:52.116Z,18.24
2022-07-29T06:41:19.050Z,18.27
2022-07-29T06:43:51.029Z,18.31
2022-07-29T06:46:22.224Z,18.30
2022-07-29T06:48:49.315Z,18.30
2022-07-29T06:51:17.353Z,18.25
2022-07-29T06:53:59.870Z,18.26
2022-07-29T06:56:40.255Z,18.30
2022-07-29T06:59:11.439Z,18.35
2022-07-29T07:01:40.559Z,18.38
2022-07-29T07:04:07.710Z,18.37
2022-07-29T07:06:34.401Z,18.27
2022-07-29T07:09:01.024Z,18.12
2022-07-29T07:11:27.772Z,18.08
2022-07-29T07:13:58.054Z,18.09
2022-07-29T07:16:27.473Z,18.10
2022-07-29T07:18:53.945Z,18.12
2022-07-29T07:21:20.722Z,18.08
2022-07-29T07:23:47.402Z,18.09
2022-07-29T07:26:14.275Z,18.17
2022-07-29T07:28:40.734Z,18.21
2022-07-29T07:31:07.235Z,18.17
2022-07-29T07:33:33.691Z,18.12
2022-07-29T07:36:00.188Z,18.07
2022-07-29T07:38:26.669Z,18.01
2022-07-29T07:40:53.274Z,18.03
2022-07-29T07:43:19.909Z,17.98
2022-07-29T07:45:46.457Z,17.97
2022-07-29T07:48:12.974Z,17.96
2022-07-29T07:50:39.509Z,17.97
2022-07-29T07:53:06.196Z,17.94
2022-07-29T07:55:53.484Z,17.99
2022-07-29T07:58:19.455Z,18.00
2022-07-29T08:00:45.972Z,17.94
2022-07-29T08:03:16.981Z,17.97
2022-07-29T08:05:44.704Z,17.96
2022-07-29T08:08:11.328Z,17.93
2022-07-29T08:10:53.019Z,17.93
2022-07-29T08:13:21.555Z,17.90
2022-07-29T08:15:48.636Z,17.91
2022-07-29T08:18:15.176Z,17.89
2022-07-29T08:20:41.739Z,17.90
2022-07-29T08:23:12.054Z,17.86
2022-07-29T08:25:42.455Z,17.79
2022-07-29T08:28:09.153Z,17.76
2022-07-29T08:30:35.837Z,17.75
2022-07-29T08:33:02.764Z,17.79
2022-07-29T08:35:34.811Z,17.77
2022-07-29T08:38:02.300Z,17.77
2022-07-29T08:40:30.622Z,17.78
2022-07-29T08:43:00.573Z,17.79
2022-07-29T08:45:29.054Z,17.82
2022-07-29T08:47:56.357Z,17.86
2022-07-29T08:50:22.895Z,17.86
2022-07-29T08:52:51.230Z,17.81
2022-07-29T08:55:21.339Z,17.86
2022-07-29T08:57:51.931Z,17.78
2022-07-29T09:00:23.278Z,17.75
2022-07-29T09:02:57.217Z,17.74
2022-07-29T09:05:25.142Z,17.82
2022-07-29T09:07:52.056Z,17.85
2022-07-29T09:10:18.647Z,17.89
2022-07-29T09:12:45.481Z,17.96
2022-07-29T09:15:12.043Z,18.00
2022-07-29T09:17:50.021Z,17.97
2022-07-29T09:20:19.507Z,17.99
2022-07-29T09:22:50.427Z,18.03
2022-07-29T09:25:34.319Z,18.07
2022-07-29T09:28:08.976Z,18.08
2022-07-29T09:30:36.513Z,18.12
2022-07-29T09:33:04.598Z,18.17
2022-07-29T09:35:31.863Z,18.19
2022-07-29T09:37:58.581Z,18.21
2022-07-29T09:40:27.949Z,18.21
2022-07-29T09:42:58.090Z,18.16
2022-07-29T09:45:32.782Z,18.15
2022-07-29T09:48:03.737Z,18.14
2022-07-29T09:50:41.111Z,18.19
2022-07-29T09:53:10.403Z,18.25
2022-07-29T09:55:48.291Z,18.28
2022-07-29T09:58:22.890Z,18.24
2022-07-29T10:00:51.256Z,18.19
2022-07-29T10:03:18.472Z,18.15
2022-07-29T10:05:46.031Z,18.18
2022-07-29T10:08:15.917Z,18.18
2022-07-29T10:10:43.671Z,18.21
2022-07-29T10:13:15.832Z,18.21
2022-07-29T10:15:46.069Z,18.22
2022-07-29T10:18:15.032Z,18.26
2022-07-29T10:20:42.239Z,18.29
2022-07-29T10:23:10.643Z,18.28
2022-07-29T10:25:37.163Z,18.25
2022-07-29T10:28:03.889Z,18.22
2022-07-29T10:30:30.503Z,18.20
2022-07-29T10:33:09.570Z,18.22
2022-07-29T10:36:12.815Z,18.27
2022-07-29T10:38:45.996Z,18.32
2022-07-29T10:41:53.785Z,18.39
2022-07-29T10:44:23.717Z,18.38
2022-07-29T10:46:51.812Z,18.42
2022-07-29T10:49:25.172Z,18.46
2022-07-29T10:52:00.118Z,18.52
2022-07-29T10:54:36.490Z,18.58
2022-07-29T10:57:53.121Z,18.62
2022-07-29T11:00:16.923Z,18.66
2022-07-29T11:02:45.393Z,18.74
2022-07-29T11:05:20.566Z,18.78
2022-07-29T11:08:20.317Z,18.85
2022-07-29T11:10:54.836Z,18.93
2022-07-29T11:13:48.946Z,19.02
2022-07-29T11:16:16.437Z,19.10
2022-07-29T11:19:26.341Z,19.11
2022-07-29T11:21:58.469Z,19.21
2022-07-29T11:24:31.956Z,19.35
2022-07-29T11:27:31.651Z,19.47
2022-07-29T11:30:03.309Z,19.55
2022-07-29T11:32:39.786Z,19.58
2022-07-29T11:35:19.010Z,19.69
2022-07-29T11:40:34.212Z,19.93
2022-07-29T11:43:00.711Z,20.08
2022-07-29T11:45:45.589Z,20.08
2022-07-29T11:48:29.012Z,20.24
2022-07-29T11:50:58.877Z,20.29
2022-07-29T11:53:25.794Z,20.26
2022-07-29T11:55:58.407Z,20.20
2022-07-29T11:58:26.275Z,20.26
2022-07-29T12:00:55.515Z,20.33
2022-07-29T12:03:32.828Z,20.34
2022-07-29T12:06:13.316Z,20.36
2022-07-29T12:08:44.331Z,20.43
2022-07-29T12:11:22.620Z,20.54
2022-07-29T12:13:53.906Z,20.74
2022-07-29T12:16:25.318Z,21.04
2022-07-29T12:19:00.825Z,21.38
2022-07-29T12:21:29.784Z,21.72
2022-07-29T12:24:03.405Z,22.10
2022-07-29T12:26:34.127Z,22.34
2022-07-29T12:29:03.187Z,22.53
2022-07-29T12:31:43.567Z,22.23
2022-07-29T12:34:12.904Z,21.96
2022-07-29T12:36:39.491Z,22.02
2022-07-29T12:39:06.239Z,21.99
2022-07-29T12:41:33.203Z,21.92
2022-07-29T12:43:59.746Z,21.90
2022-07-29T12:46:26.378Z,22.41
2022-07-29T12:48:59.555Z,22.62
2022-07-29T12:51:34.567Z,22.99
2022-07-29T12:54:11.208Z,23.02
2022-07-29T12:56:43.674Z,22.94
2022-07-29T12:59:21.575Z,23.01
2022-07-29T13:01:52.287Z,23.10
2022-07-29T13:04:27.861Z,23.35
2022-07-29T13:07:04.405Z,23.48
2022-07-29T13:09:48.632Z,23.50
2022-07-29T13:12:15.553Z,23.58
2022-07-29T13:14:47.050Z,23.46
2022-07-29T13:17:16.723Z,23.61
2022-07-29T13:19:44.651Z,23.53
2022-07-29T13:22:22.484Z,23.27
2022-07-29T13:24:53.882Z,23.37
2022-07-29T13:27:23.265Z,23.40
2022-07-29T13:29:52.168Z,23.45
2022-07-29T13:32:28.458Z,23.58
2022-07-29T13:35:05.473Z,23.60
2022-07-29T13:37:34.948Z,23.73
2022-07-29T13:40:03.993Z,23.81
2022-07-29T13:42:30.741Z,23.86
2022-07-29T13:44:57.288Z,23.84
2022-07-29T13:47:32.099Z,23.73
2022-07-29T13:50:00.880Z,24.00
2022-07-29T13:52:27.406Z,24.23
2022-07-29T13:54:53.893Z,24.28
2022-07-29T13:57:20.388Z,24.09
2022-07-29T13:59:51.864Z,24.25
2022-07-29T14:02:20.411Z,24.06
2022-07-29T14:04:47.086Z,24.07
2022-07-29T14:07:16.413Z,24.10
2022-07-29T14:09:43.292Z,24.07
2022-07-29T14:12:10.099Z,24.20
2022-07-29T14:14:37.619Z,24.35
2022-07-29T14:17:07.236Z,24.51
2022-07-29T14:19:36.572Z,24.47
2022-07-29T14:22:05.006Z,24.44
2022-07-29T14:24:32.183Z,24.19
2022-07-29T14:26:59.643Z,23.91
2022-07-29T14:29:37.228Z,23.69
2022-07-29T14:32:06.598Z,23.74
2022-07-29T14:34:34.365Z,23.97
2022-07-29T14:37:00.897Z,24.02
2022-07-29T14:39:31.829Z,23.88
2022-07-29T14:41:59.173Z,23.77
2022-07-29T14:44:31.822Z,23.68
2022-07-29T14:47:01.653Z,23.60
2022-07-29T14:49:35.020Z,23.77
2022-07-29T14:52:01.770Z,23.69
2022-07-29T14:54:28.351Z,23.60
2022-07-29T14:56:57.874Z,23.55
2022-07-29T14:59:24.578Z,23.51
2022-07-29T15:01:51.207Z,23.40
2022-07-29T15:04:17.694Z,23.48
2022-07-29T15:06:44.750Z,23.52
2022-07-29T15:09:11.534Z,23.39
2022-07-29T15:11:38.707Z,23.51
2022-07-29T15:14:06.692Z,23.48
2022-07-29T15:16:33.818Z,23.48
2022-07-29T15:19:01.264Z,23.37
2022-07-29T15:21:28.454Z,23.41
2022-07-29T15:23:54.975Z,23.38
2022-07-29T15:26:21.857Z,23.33
2022-07-29T15:28:49.100Z,23.40
2022-07-29T15:31:15.710Z,23.52
2022-07-29T15:33:42.303Z,23.46
2022-07-29T15:36:08.954Z,23.41
2022-07-29T15:38:35.547Z,23.38
2022-07-29T15:41:08.457Z,23.21
2022-07-29T15:43:36.133Z,23.14
2022-07-29T15:46:21.644Z,23.17
2022-07-29T15:48:48.238Z,23.07
2022-07-29T15:51:15.206Z,23.07
2022-07-29T15:53:41.712Z,22.99
2022-07-29T15:56:08.173Z,22.96
2022-07-29T15:58:34.640Z,22.88
2022-07-29T16:01:01.155Z,22.92
2022-07-29T16:03:27.650Z,23.06
2022-07-29T16:05:54.120Z,23.17
2022-07-29T16:08:20.652Z,23.30
2022-07-29T16:10:47.132Z,23.44
2022-07-29T16:13:16.942Z,23.52
2022-07-29T16:15:45.384Z,23.53
2022-07-29T16:18:30.066Z,23.65
2022-07-29T16:20:57.074Z,23.75
2022-07-29T16:23:24.619Z,23.68
2022-07-29T16:25:59.680Z,23.66
2022-07-29T16:28:27.432Z,23.67
2022-07-29T16:30:53.933Z,23.71
2022-07-29T16:33:20.447Z,23.78
2022-07-29T16:35:46.918Z,23.80
2022-07-29T16:38:13.604Z,23.96
2022-07-29T16:40:40.334Z,24.04
2022-07-29T16:43:06.872Z,24.08
2022-07-29T16:45:45.770Z,24.17
2022-07-29T16:48:13.807Z,24.24
2022-07-29T16:50:40.890Z,24.35
2022-07-29T16:53:10.247Z,24.20
2022-07-29T16:55:36.801Z,24.18
2022-07-29T16:58:03.312Z,24.06
2022-07-29T17:00:29.853Z,23.91
2022-07-29T17:02:56.398Z,23.87
2022-07-29T17:05:22.901Z,23.79
2022-07-29T17:07:49.898Z,23.82
2022-07-29T17:10:16.392Z,23.94
2022-07-29T17:12:42.908Z,24.09
2022-07-29T17:15:11.330Z,24.06
2022-07-29T17:17:55.090Z,24.15
2022-07-29T17:20:22.169Z,24.15
2022-07-29T17:22:48.616Z,24.14
2022-07-29T17:25:20.623Z,24.01
2022-07-29T17:27:49.584Z,23.92
2022-07-29T17:30:16.361Z,23.88
2022-07-29T17:32:42.837Z,23.95
2022-07-29T17:35:29.198Z,24.00
2022-07-29T17:37:55.826Z,24.08
2022-07-29T17:40:22.642Z,23.99
2022-07-29T17:42:49.224Z,23.99
2022-07-29T17:45:15.734Z,24.01
2022-07-29T17:47:42.253Z,24.00
2022-07-29T17:50:09.156Z,23.89
2022-07-29T17:52:35.680Z,23.79
2022-07-29T17:55:02.588Z,23.78
2022-07-29T17:57:29.126Z,23.80
2022-07-29T17:59:55.658Z,23.67
2022-07-29T18:02:22.258Z,23.55
2022-07-29T18:04:51.488Z,23.51
2022-07-29T18:07:18.537Z,23.49
2022-07-29T18:09:45.191Z,23.46
2022-07-29T18:12:11.725Z,23.38
2022-07-29T18:14:38.498Z,23.33
2022-07-29T18:17:05.006Z,23.26
2022-07-29T18:19:31.493Z,23.19
2022-07-29T18:22:03.219Z,23.08
2022-07-29T18:24:32.207Z,23.09
2022-07-29T18:26:58.922Z,23.13
2022-07-29T18:29:25.794Z,23.07
2022-07-29T18:31:52.279Z,23.02
2022-07-29T18:34:18.786Z,23.03
2022-07-29T18:36:46.164Z,23.02
2022-07-29T18:39:19.154Z,23.00
2022-07-29T18:41:50.762Z,22.91
2022-07-29T18:44:21.753Z,22.81
2022-07-29T18:46:48.771Z,22.72
2022-07-29T18:49:15.340Z,22.63
2022-07-29T18:51:41.926Z,22.65
2022-07-29T18:54:09.991Z,22.66
2022-07-29T18:56:37.245Z,22.64
2022-07-29T18:59:04.257Z,22.63
2022-07-29T19:01:31.739Z,22.58
2022-07-29T19:03:58.624Z,22.38
2022-07-29T19:06:25.927Z,22.23
2022-07-29T19:08:52.912Z,22.21
2022-07-29T19:11:19.385Z,22.23
2022-07-29T19:13:45.910Z,22.24
2022-07-29T19:16:14.083Z,22.25
2022-07-29T19:18:41.270Z,22.16
2022-07-29T19:21:07.806Z,22.11
2022-07-29T19:24:00.008Z,22.10
2022-07-29T19:26:20.981Z,22.08
2022-07-29T19:28:48.847Z,22.01
2022-07-29T19:31:15.960Z,21.98
2022-07-29T19:33:42.760Z,21.89
2022-07-29T19:36:09.485Z,21.77
2022-07-29T19:38:38.137Z,21.63
2022-07-29T19:41:06.131Z,21.51
2022-07-29T19:43:51.857Z,21.51
2022-07-29T19:46:19.705Z,21.55
2022-07-29T19:48:46.396Z,21.56
2022-07-29T19:51:13.038Z,21.56
2022-07-29T19:53:39.735Z,21.54
2022-07-29T19:56:08.940Z,21.49
2022-07-29T19:58:35.943Z,21.38
2022-07-29T20:01:02.956Z,21.18
2022-07-29T20:03:36.992Z,21.06
2022-07-29T20:06:03.626Z,20.92
2022-07-29T20:08:30.114Z,20.97
2022-07-29T20:10:56.775Z,20.92
2022-07-29T20:13:23.241Z,20.88
2022-07-29T20:15:49.770Z,20.89
2022-07-29T20:18:16.410Z,20.76
2022-07-29T20:20:43.401Z,20.66
2022-07-29T20:23:11.571Z,20.68
2022-07-29T20:25:39.276Z,20.49
2022-07-29T20:28:05.825Z,20.55
2022-07-29T20:30:32.353Z,20.45
2022-07-29T20:32:59.536Z,20.48
2022-07-29T20:35:27.972Z,20.21
2022-07-29T20:37:56.611Z,20.04
2022-07-29T20:40:27.110Z,19.99
2022-07-29T20:42:54.872Z,20.10
2022-07-29T20:45:23.412Z,20.19
2022-07-29T20:47:51.655Z,20.17
2022-07-29T20:50:19.011Z,20.22
2022-07-29T20:52:45.699Z,20.12
2022-07-29T20:55:12.282Z,19.96
2022-07-29T20:57:39.989Z,19.78
2022-07-29T21:00:07.653Z,19.91
2022-07-29T21:02:34.447Z,19.92
2022-07-29T21:05:01.102Z,19.70
2022-07-29T21:07:27.752Z,19.69
2022-07-29T21:09:54.227Z,19.77
2022-07-29T21:12:20.685Z,19.79
2022-07-29T21:14:47.998Z,19.82
2022-07-29T21:17:16.272Z,19.86
2022-07-29T21:19:43.160Z,19.83
2022-07-29T21:22:09.736Z,19.76
2022-07-29T21:24:36.277Z,19.67
2022-07-29T21:27:22.003Z,19.61
2022-07-29T21:29:48.842Z,19.52
2022-07-29T21:32:27.471Z,19.54
2022-07-29T21:34:56.395Z,19.55
2022-07-29T21:37:23.318Z,19.61
2022-07-29T21:39:49.870Z,19.51
2022-07-29T21:42:16.624Z,19.64
2022-07-29T21:44:43.160Z,19.69
2022-07-29T21:47:10.604Z,19.70
2022-07-29T21:49:37.291Z,19.75
2022-07-29T21:52:04.861Z,19.81
2022-07-29T21:54:31.481Z,19.81
2022-07-29T21:56:58.392Z,19.85
2022-07-29T21:59:24.953Z,19.84
2022-07-29T22:01:51.828Z,19.83
2022-07-29T22:04:18.521Z,19.74
2022-07-29T22:06:45.071Z,19.73
2022-07-29T22:09:11.588Z,19.75
2022-07-29T22:11:38.175Z,19.74
2022-07-29T22:14:05.684Z,19.70
2022-07-29T22:16:32.243Z,19.70
2022-07-29T22:18:58.739Z,19.70
2022-07-29T22:21:25.219Z,19.64
2022-07-29T22:23:51.724Z,19.58
2022-07-29T22:26:18.313Z,19.54
2022-07-29T22:28:44.762Z,19.45
2022-07-29T22:31:11.346Z,19.38
2022-07-29T22:33:38.160Z,19.27
2022-07-29T22:36:04.971Z,19.32
2022-07-29T22:38:31.439Z,19.35
2022-07-29T22:41:00.456Z,19.35
2022-07-29T22:43:27.347Z,19.32
2022-07-29T22:45:53.865Z,19.30
2022-07-29T22:48:20.353Z,19.15
2022-07-29T22:50:46.874Z,19.22
2022-07-29T22:53:13.376Z,19.26
2022-07-29T22:55:39.996Z,19.26
2022-07-29T22:58:06.657Z,19.18
2022-07-29T23:00:33.353Z,19.16
2022-07-29T23:02:59.851Z,19.08
2022-07-29T23:05:26.313Z,19.05
2022-07-29T23:07:52.803Z,19.14
2022-07-29T23:10:19.283Z,19.14
2022-07-29T23:12:45.756Z,19.04
2022-07-29T23:15:12.882Z,18.97
2022-07-29T23:17:39.367Z,18.87
2022-07-29T23:20:07.828Z,18.91
2022-07-29T23:22:35.831Z,18.98
2022-07-29T23:25:02.431Z,18.86
2022-07-29T23:27:28.883Z,18.86
2022-07-29T23:29:55.359Z,18.79
2022-07-29T23:32:21.803Z,18.74
2022-07-29T23:34:48.264Z,18.67
2022-07-29T23:37:14.708Z,18.58
2022-07-29T23:39:41.183Z,18.57
2022-07-29T23:42:07.660Z,18.53
2022-07-29T23:44:34.337Z,18.46
2022-07-29T23:47:00.938Z,18.33
2022-07-29T23:49:27.614Z,18.36
2022-07-29T23:51:54.080Z,18.41
2022-07-29T23:54:20.540Z,18.49
2022-07-29T23:56:46.976Z,18.38
2022-07-29T23:59:13.452Z,18.39
